sensor_id;sensor_type;location;lat;lon;timestamp;P1;durP1;ratioP1;P2;durP2;ratioP2
73170;SDS011;61381;50.118;19.962;2023-06-14T00:00:34;16.95;;;7.68;;
73170;SDS011;61381;50.118;19.962;2023-06-14T00:05:55;20.95;;;8.05;;
73170;SDS011;61381;50.118;19.962;2023-06-14T00:10:58;16.70;;;7.85;;
73170;SDS011;61381;50.118;19.962;2023-06-14T00:15:59;17.25;;;7.30;;
73170;SDS011;61381;50.118;19.962;2023-06-14T00:21:00;17.95;;;7.55;;
73170;SDS011;61381;50.118;19.962;2023-06-14T00:26:02;17.10;;;7.85;;
73170;SDS011;61381;50.118;19.962;2023-06-14T00:31:03;16.63;;;8.40;;
73170;SDS011;61381;50.118;19.962;2023-06-14T00:36:04;17.90;;;7.75;;
73170;SDS011;61381;50.118;19.962;2023-06-14T00:41:07;16.35;;;8.73;;
73170;SDS011;61381;50.118;19.962;2023-06-14T00:46:08;13.70;;;6.25;;
73170;SDS011;61381;50.118;19.962;2023-06-14T00:51:09;26.05;;;11.07;;
73170;SDS011;61381;50.118;19.962;2023-06-14T00:56:11;24.65;;;10.23;;
73170;SDS011;61381;50.118;19.962;2023-06-14T01:01:12;19.70;;;8.77;;
73170;SDS011;61381;50.118;19.962;2023-06-14T01:06:15;22.65;;;9.43;;
73170;SDS011;61381;50.118;19.962;2023-06-14T01:11:27;27.58;;;11.40;;
73170;SDS011;61381;50.118;19.962;2023-06-14T01:16:32;27.35;;;11.65;;
73170;SDS011;61381;50.118;19.962;2023-06-14T01:21:34;26.27;;;10.27;;
73170;SDS011;61381;50.118;19.962;2023-06-14T01:26:36;30.52;;;10.40;;
73170;SDS011;61381;50.118;19.962;2023-06-14T01:31:39;23.17;;;9.27;;
73170;SDS011;61381;50.118;19.962;2023-06-14T01:36:40;24.15;;;9.82;;
73170;SDS011;61381;50.118;19.962;2023-06-14T01:41:45;24.45;;;9.13;;
73170;SDS011;61381;50.118;19.962;2023-06-14T01:46:48;19.50;;;8.77;;
73170;SDS011;61381;50.118;19.962;2023-06-14T01:51:49;21.13;;;7.97;;
73170;SDS011;61381;50.118;19.962;2023-06-14T01:56:52;16.02;;;7.40;;
73170;SDS011;61381;50.118;19.962;2023-06-14T02:01:53;20.38;;;8.32;;
73170;SDS011;61381;50.118;19.962;2023-06-14T02:06:54;18.70;;;7.85;;
73170;SDS011;61381;50.118;19.962;2023-06-14T02:11:56;18.90;;;7.68;;
73170;SDS011;61381;50.118;19.962;2023-06-14T02:16:57;15.55;;;7.05;;
73170;SDS011;61381;50.118;19.962;2023-06-14T02:21:58;14.68;;;6.63;;
73170;SDS011;61381;50.118;19.962;2023-06-14T02:27:00;15.88;;;6.75;;
73170;SDS011;61381;50.118;19.962;2023-06-14T02:32:02;16.20;;;6.68;;
73170;SDS011;61381;50.118;19.962;2023-06-14T02:37:03;14.10;;;6.75;;
73170;SDS011;61381;50.118;19.962;2023-06-14T02:42:06;18.83;;;8.45;;
73170;SDS011;61381;50.118;19.962;2023-06-14T02:47:07;17.20;;;6.82;;
73170;SDS011;61381;50.118;19.962;2023-06-14T02:52:09;16.58;;;6.78;;
73170;SDS011;61381;50.118;19.962;2023-06-14T02:57:11;13.00;;;6.13;;
73170;SDS011;61381;50.118;19.962;2023-06-14T03:02:12;17.50;;;6.35;;
73170;SDS011;61381;50.118;19.962;2023-06-14T03:07:13;13.43;;;5.72;;
73170;SDS011;61381;50.118;19.962;2023-06-14T03:12:15;11.90;;;5.45;;
73170;SDS011;61381;50.118;19.962;2023-06-14T03:17:16;11.35;;;5.43;;
73170;SDS011;61381;50.118;19.962;2023-06-14T03:22:17;11.90;;;5.50;;
73170;SDS011;61381;50.118;19.962;2023-06-14T03:27:20;13.60;;;5.97;;
73170;SDS011;61381;50.118;19.962;2023-06-14T03:32:21;11.57;;;6.18;;
73170;SDS011;61381;50.118;19.962;2023-06-14T03:37:22;14.02;;;6.38;;
73170;SDS011;61381;50.118;19.962;2023-06-14T03:42:24;13.27;;;6.57;;
73170;SDS011;61381;50.118;19.962;2023-06-14T03:47:25;16.05;;;6.53;;
73170;SDS011;61381;50.118;19.962;2023-06-14T03:52:26;13.13;;;5.82;;
73170;SDS011;61381;50.118;19.962;2023-06-14T03:57:29;12.38;;;5.95;;
73170;SDS011;61381;50.118;19.962;2023-06-14T04:02:30;12.32;;;5.60;;
73170;SDS011;61381;50.118;19.962;2023-06-14T04:07:31;11.30;;;5.88;;
73170;SDS011;61381;50.118;19.962;2023-06-14T04:12:33;13.25;;;5.55;;
73170;SDS011;61381;50.118;19.962;2023-06-14T04:17:35;11.82;;;5.45;;
73170;SDS011;61381;50.118;19.962;2023-06-14T04:22:37;11.30;;;5.85;;
73170;SDS011;61381;50.118;19.962;2023-06-14T04:27:39;11.13;;;5.85;;
73170;SDS011;61381;50.118;19.962;2023-06-14T04:32:40;11.02;;;5.38;;
73170;SDS011;61381;50.118;19.962;2023-06-14T04:37:41;10.45;;;5.90;;
73170;SDS011;61381;50.118;19.962;2023-06-14T04:42:44;11.60;;;5.57;;
73170;SDS011;61381;50.118;19.962;2023-06-14T04:47:45;13.38;;;6.40;;
73170;SDS011;61381;50.118;19.962;2023-06-14T04:52:46;13.13;;;6.47;;
73170;SDS011;61381;50.118;19.962;2023-06-14T04:57:48;14.23;;;6.75;;
73170;SDS011;61381;50.118;19.962;2023-06-14T05:02:49;10.73;;;5.68;;
73170;SDS011;61381;50.118;19.962;2023-06-14T05:07:50;9.15;;;5.10;;
73170;SDS011;61381;50.118;19.962;2023-06-14T05:12:52;11.52;;;5.50;;
73170;SDS011;61381;50.118;19.962;2023-06-14T05:17:53;8.15;;;4.78;;
73170;SDS011;61381;50.118;19.962;2023-06-14T05:22:54;5.70;;;4.20;;
73170;SDS011;61381;50.118;19.962;2023-06-14T05:27:57;7.15;;;4.30;;
73170;SDS011;61381;50.118;19.962;2023-06-14T05:32:57;5.50;;;3.67;;
73170;SDS011;61381;50.118;19.962;2023-06-14T05:37:58;3.47;;;2.35;;
73170;SDS011;61381;50.118;19.962;2023-06-14T05:43:01;3.33;;;2.83;;
73170;SDS011;61381;50.118;19.962;2023-06-14T05:48:02;5.75;;;4.03;;
73170;SDS011;61381;50.118;19.962;2023-06-14T05:53:03;8.25;;;3.63;;
73170;SDS011;61381;50.118;19.962;2023-06-14T05:58:06;7.15;;;4.20;;
73170;SDS011;61381;50.118;19.962;2023-06-14T06:03:07;10.98;;;4.25;;
73170;SDS011;61381;50.118;19.962;2023-06-14T06:08:08;11.15;;;4.75;;
73170;SDS011;61381;50.118;19.962;2023-06-14T06:13:10;10.85;;;6.63;;
73170;SDS011;61381;50.118;19.962;2023-06-14T06:18:11;13.85;;;7.03;;
73170;SDS011;61381;50.118;19.962;2023-06-14T06:23:12;12.23;;;6.00;;
73170;SDS011;61381;50.118;19.962;2023-06-14T06:28:15;14.85;;;6.57;;
73170;SDS011;61381;50.118;19.962;2023-06-14T06:33:16;8.75;;;5.15;;
73170;SDS011;61381;50.118;19.962;2023-06-14T06:38:17;10.20;;;5.47;;
73170;SDS011;61381;50.118;19.962;2023-06-14T06:43:19;6.75;;;3.88;;
73170;SDS011;61381;50.118;19.962;2023-06-14T06:48:20;6.00;;;3.80;;
73170;SDS011;61381;50.118;19.962;2023-06-14T06:53:21;5.50;;;3.25;;
73170;SDS011;61381;50.118;19.962;2023-06-14T06:58:23;4.75;;;3.38;;
73170;SDS011;61381;50.118;19.962;2023-06-14T07:03:24;5.53;;;3.65;;
73170;SDS011;61381;50.118;19.962;2023-06-14T07:08:25;5.85;;;3.53;;
73170;SDS011;61381;50.118;19.962;2023-06-14T07:13:28;6.43;;;4.10;;
73170;SDS011;61381;50.118;19.962;2023-06-14T07:18:29;5.55;;;3.85;;
73170;SDS011;61381;50.118;19.962;2023-06-14T07:23:30;8.70;;;4.47;;
73170;SDS011;61381;50.118;19.962;2023-06-14T07:28:32;6.85;;;4.07;;
73170;SDS011;61381;50.118;19.962;2023-06-14T07:33:33;7.63;;;4.28;;
73170;SDS011;61381;50.118;19.962;2023-06-14T07:38:34;7.40;;;4.28;;
73170;SDS011;61381;50.118;19.962;2023-06-14T07:43:36;9.57;;;5.60;;
73170;SDS011;61381;50.118;19.962;2023-06-14T07:48:37;12.35;;;6.50;;
73170;SDS011;61381;50.118;19.962;2023-06-14T07:53:38;10.93;;;5.88;;
73170;SDS011;61381;50.118;19.962;2023-06-14T07:58:41;11.02;;;5.90;;
73170;SDS011;61381;50.118;19.962;2023-06-14T08:03:42;11.55;;;6.55;;
73170;SDS011;61381;50.118;19.962;2023-06-14T08:08:43;10.85;;;6.35;;
73170;SDS011;61381;50.118;19.962;2023-06-14T08:13:45;10.38;;;6.07;;
73170;SDS011;61381;50.118;19.962;2023-06-14T08:18:46;12.27;;;6.78;;
73170;SDS011;61381;50.118;19.962;2023-06-14T08:23:47;15.93;;;7.32;;
73170;SDS011;61381;50.118;19.962;2023-06-14T08:28:49;14.52;;;8.50;;
73170;SDS011;61381;50.118;19.962;2023-06-14T08:33:50;21.38;;;9.85;;
73170;SDS011;61381;50.118;19.962;2023-06-14T08:38:51;16.95;;;8.85;;
73170;SDS011;61381;50.118;19.962;2023-06-14T08:43:53;15.13;;;7.70;;
73170;SDS011;61381;50.118;19.962;2023-06-14T08:48:54;16.05;;;8.45;;
73170;SDS011;61381;50.118;19.962;2023-06-14T08:53:56;17.58;;;7.60;;
73170;SDS011;61381;50.118;19.962;2023-06-14T08:58:58;14.82;;;8.23;;
73170;SDS011;61381;50.118;19.962;2023-06-14T09:04:00;17.75;;;8.80;;
73170;SDS011;61381;50.118;19.962;2023-06-14T09:09:01;22.15;;;10.15;;
73170;SDS011;61381;50.118;19.962;2023-06-14T09:14:03;17.80;;;10.07;;
73170;SDS011;61381;50.118;19.962;2023-06-14T09:19:04;18.58;;;9.98;;
73170;SDS011;61381;50.118;19.962;2023-06-14T09:24:05;18.30;;;8.82;;
73170;SDS011;61381;50.118;19.962;2023-06-14T09:29:08;17.70;;;9.75;;
73170;SDS011;61381;50.118;19.962;2023-06-14T09:34:10;18.67;;;10.07;;
73170;SDS011;61381;50.118;19.962;2023-06-14T09:39:11;17.67;;;9.32;;
73170;SDS011;61381;50.118;19.962;2023-06-14T09:44:19;20.23;;;10.35;;
73170;SDS011;61381;50.118;19.962;2023-06-14T09:49:22;21.85;;;11.90;;
73170;SDS011;61381;50.118;19.962;2023-06-14T09:54:23;20.33;;;9.35;;
73170;SDS011;61381;50.118;19.962;2023-06-14T09:59:27;22.25;;;11.10;;
73170;SDS011;61381;50.118;19.962;2023-06-14T10:04:31;23.20;;;11.45;;
73170;SDS011;61381;50.118;19.962;2023-06-14T10:09:34;20.90;;;10.68;;
73170;SDS011;61381;50.118;19.962;2023-06-14T10:14:37;24.98;;;12.45;;
73170;SDS011;61381;50.118;19.962;2023-06-14T10:19:41;24.02;;;12.20;;
73170;SDS011;61381;50.118;19.962;2023-06-14T10:24:45;20.08;;;11.75;;
73170;SDS011;61381;50.118;19.962;2023-06-14T10:30:04;19.15;;;10.05;;
73170;SDS011;61381;50.118;19.962;2023-06-14T10:35:07;14.90;;;8.85;;
73170;SDS011;61381;50.118;19.962;2023-06-14T10:40:09;15.48;;;9.02;;
73170;SDS011;61381;50.118;19.962;2023-06-14T10:45:32;14.38;;;7.35;;
73170;SDS011;61381;50.118;19.962;2023-06-14T10:50:33;14.63;;;8.23;;
73170;SDS011;61381;50.118;19.962;2023-06-14T10:55:34;13.20;;;7.80;;
73170;SDS011;61381;50.118;19.962;2023-06-14T11:00:37;15.52;;;9.20;;
73170;SDS011;61381;50.118;19.962;2023-06-14T11:05:48;14.30;;;9.43;;
73170;SDS011;61381;50.118;19.962;2023-06-14T11:10:50;17.45;;;9.63;;
73170;SDS011;61381;50.118;19.962;2023-06-14T11:15:53;13.38;;;8.27;;
73170;SDS011;61381;50.118;19.962;2023-06-14T11:20:54;15.73;;;9.32;;
73170;SDS011;61381;50.118;19.962;2023-06-14T11:25:55;14.32;;;10.18;;
73170;SDS011;61381;50.118;19.962;2023-06-14T11:31:04;13.90;;;8.20;;
73170;SDS011;61381;50.118;19.962;2023-06-14T11:36:05;12.88;;;7.95;;
73170;SDS011;61381;50.118;19.962;2023-06-14T11:41:07;11.48;;;7.18;;
73170;SDS011;61381;50.118;19.962;2023-06-14T11:46:13;12.70;;;7.35;;
73170;SDS011;61381;50.118;19.962;2023-06-14T11:51:15;12.45;;;7.72;;
73170;SDS011;61381;50.118;19.962;2023-06-14T11:56:16;13.35;;;8.30;;
73170;SDS011;61381;50.118;19.962;2023-06-14T12:01:19;11.82;;;7.72;;
73170;SDS011;61381;50.118;19.962;2023-06-14T12:06:25;11.63;;;7.60;;
73170;SDS011;61381;50.118;19.962;2023-06-14T12:11:31;11.25;;;7.43;;
73170;SDS011;61381;50.118;19.962;2023-06-14T12:16:34;11.45;;;6.68;;
73170;SDS011;61381;50.118;19.962;2023-06-14T12:21:38;9.48;;;5.93;;
73170;SDS011;61381;50.118;19.962;2023-06-14T12:26:39;7.32;;;3.95;;
73170;SDS011;61381;50.118;19.962;2023-06-14T12:31:42;6.00;;;4.15;;
73170;SDS011;61381;50.118;19.962;2023-06-14T12:36:43;9.80;;;5.38;;
73170;SDS011;61381;50.118;19.962;2023-06-14T12:41:45;7.45;;;4.50;;
73170;SDS011;61381;50.118;19.962;2023-06-14T12:46:47;8.18;;;4.70;;
73170;SDS011;61381;50.118;19.962;2023-06-14T12:51:48;5.93;;;4.20;;
73170;SDS011;61381;50.118;19.962;2023-06-14T12:56:49;5.60;;;4.00;;
73170;SDS011;61381;50.118;19.962;2023-06-14T13:01:51;6.30;;;5.25;;
73170;SDS011;61381;50.118;19.962;2023-06-14T13:06:52;6.13;;;3.95;;
73170;SDS011;61381;50.118;19.962;2023-06-14T13:11:53;6.78;;;4.57;;
73170;SDS011;61381;50.118;19.962;2023-06-14T13:16:56;6.32;;;3.70;;
73170;SDS011;61381;50.118;19.962;2023-06-14T13:21:57;3.67;;;2.58;;
73170;SDS011;61381;50.118;19.962;2023-06-14T13:26:58;7.15;;;4.18;;
73170;SDS011;61381;50.118;19.962;2023-06-14T13:32:00;5.32;;;3.50;;
73170;SDS011;61381;50.118;19.962;2023-06-14T13:37:01;8.02;;;4.32;;
73170;SDS011;61381;50.118;19.962;2023-06-14T13:42:02;6.72;;;4.40;;
73170;SDS011;61381;50.118;19.962;2023-06-14T13:47:05;6.20;;;3.53;;
73170;SDS011;61381;50.118;19.962;2023-06-14T13:52:07;10.38;;;3.42;;
73170;SDS011;61381;50.118;19.962;2023-06-14T13:57:08;5.38;;;3.55;;
73170;SDS011;61381;50.118;19.962;2023-06-14T14:02:10;5.38;;;3.30;;
73170;SDS011;61381;50.118;19.962;2023-06-14T14:07:12;7.70;;;3.80;;
73170;SDS011;61381;50.118;19.962;2023-06-14T14:12:13;5.72;;;3.10;;
73170;SDS011;61381;50.118;19.962;2023-06-14T14:17:15;3.55;;;2.58;;
73170;SDS011;61381;50.118;19.962;2023-06-14T14:22:16;6.68;;;4.07;;
73170;SDS011;61381;50.118;19.962;2023-06-14T14:27:17;4.72;;;3.58;;
73170;SDS011;61381;50.118;19.962;2023-06-14T14:32:19;6.88;;;3.72;;
73170;SDS011;61381;50.118;19.962;2023-06-14T14:37:20;6.72;;;4.25;;
73170;SDS011;61381;50.118;19.962;2023-06-14T14:42:21;5.88;;;4.20;;
73170;SDS011;61381;50.118;19.962;2023-06-14T14:47:24;5.45;;;3.60;;
73170;SDS011;61381;50.118;19.962;2023-06-14T14:52:25;7.57;;;5.00;;
73170;SDS011;61381;50.118;19.962;2023-06-14T14:57:26;7.30;;;4.53;;
73170;SDS011;61381;50.118;19.962;2023-06-14T15:02:28;4.82;;;3.75;;
73170;SDS011;61381;50.118;19.962;2023-06-14T15:07:30;5.82;;;3.38;;
73170;SDS011;61381;50.118;19.962;2023-06-14T15:12:31;7.63;;;3.03;;
73170;SDS011;61381;50.118;19.962;2023-06-14T15:17:34;4.55;;;3.13;;
73170;SDS011;61381;50.118;19.962;2023-06-14T15:22:35;4.20;;;3.20;;
73170;SDS011;61381;50.118;19.962;2023-06-14T15:27:36;4.55;;;3.15;;
73170;SDS011;61381;50.118;19.962;2023-06-14T15:32:38;4.45;;;3.35;;
73170;SDS011;61381;50.118;19.962;2023-06-14T15:37:39;7.25;;;4.25;;
73170;SDS011;61381;50.118;19.962;2023-06-14T15:42:40;5.70;;;4.00;;
73170;SDS011;61381;50.118;19.962;2023-06-14T15:47:43;5.07;;;2.97;;
73170;SDS011;61381;50.118;19.962;2023-06-14T15:52:44;4.30;;;2.75;;
73170;SDS011;61381;50.118;19.962;2023-06-14T15:57:45;4.90;;;3.38;;
73170;SDS011;61381;50.118;19.962;2023-06-14T16:02:47;4.32;;;2.92;;
73170;SDS011;61381;50.118;19.962;2023-06-14T16:07:48;4.78;;;2.88;;
73170;SDS011;61381;50.118;19.962;2023-06-14T16:12:49;5.05;;;2.83;;
73170;SDS011;61381;50.118;19.962;2023-06-14T16:17:52;5.20;;;3.75;;
73170;SDS011;61381;50.118;19.962;2023-06-14T16:22:53;3.67;;;2.80;;
73170;SDS011;61381;50.118;19.962;2023-06-14T16:27:54;4.57;;;2.50;;
73170;SDS011;61381;50.118;19.962;2023-06-14T16:32:56;4.45;;;3.10;;
73170;SDS011;61381;50.118;19.962;2023-06-14T16:37:57;4.60;;;2.90;;
73170;SDS011;61381;50.118;19.962;2023-06-14T16:42:58;4.30;;;3.08;;
73170;SDS011;61381;50.118;19.962;2023-06-14T16:48:01;3.42;;;3.05;;
73170;SDS011;61381;50.118;19.962;2023-06-14T16:53:02;6.28;;;3.38;;
73170;SDS011;61381;50.118;19.962;2023-06-14T16:58:03;4.75;;;3.30;;
73170;SDS011;61381;50.118;19.962;2023-06-14T17:03:05;4.97;;;3.13;;
73170;SDS011;61381;50.118;19.962;2023-06-14T17:08:06;4.80;;;2.75;;
73170;SDS011;61381;50.118;19.962;2023-06-14T17:13:07;5.15;;;3.63;;
73170;SDS011;61381;50.118;19.962;2023-06-14T17:18:09;4.88;;;3.08;;
73170;SDS011;61381;50.118;19.962;2023-06-14T17:23:11;5.03;;;3.65;;
73170;SDS011;61381;50.118;19.962;2023-06-14T17:28:12;5.80;;;3.20;;
73170;SDS011;61381;50.118;19.962;2023-06-14T17:33:14;4.60;;;4.10;;
73170;SDS011;61381;50.118;19.962;2023-06-14T17:38:15;6.75;;;3.25;;
73170;SDS011;61381;50.118;19.962;2023-06-14T17:43:16;5.15;;;3.38;;
73170;SDS011;61381;50.118;19.962;2023-06-14T17:48:18;5.22;;;3.42;;
73170;SDS011;61381;50.118;19.962;2023-06-14T17:53:19;6.35;;;4.05;;
73170;SDS011;61381;50.118;19.962;2023-06-14T17:58:20;7.60;;;4.53;;
73170;SDS011;61381;50.118;19.962;2023-06-14T18:03:23;5.28;;;4.07;;
73170;SDS011;61381;50.118;19.962;2023-06-14T18:08:24;6.85;;;4.95;;
73170;SDS011;61381;50.118;19.962;2023-06-14T18:13:25;9.65;;;4.60;;
73170;SDS011;61381;50.118;19.962;2023-06-14T18:18:27;7.30;;;4.45;;
73170;SDS011;61381;50.118;19.962;2023-06-14T18:23:28;9.07;;;4.70;;
73170;SDS011;61381;50.118;19.962;2023-06-14T18:28:29;6.20;;;4.20;;
73170;SDS011;61381;50.118;19.962;2023-06-14T18:33:32;6.75;;;4.45;;
73170;SDS011;61381;50.118;19.962;2023-06-14T18:38:33;6.28;;;4.30;;
73170;SDS011;61381;50.118;19.962;2023-06-14T18:43:34;7.63;;;4.28;;
73170;SDS011;61381;50.118;19.962;2023-06-14T18:48:36;8.80;;;4.93;;
73170;SDS011;61381;50.118;19.962;2023-06-14T18:53:37;8.48;;;5.00;;
73170;SDS011;61381;50.118;19.962;2023-06-14T18:58:38;10.55;;;4.88;;
73170;SDS011;61381;50.118;19.962;2023-06-14T19:03:40;8.45;;;5.05;;
73170;SDS011;61381;50.118;19.962;2023-06-14T19:08:41;8.98;;;5.30;;
73170;SDS011;61381;50.118;19.962;2023-06-14T19:13:42;10.05;;;5.88;;
73170;SDS011;61381;50.118;19.962;2023-06-14T19:18:44;8.65;;;5.57;;
73170;SDS011;61381;50.118;19.962;2023-06-14T19:23:45;9.48;;;6.05;;
73170;SDS011;61381;50.118;19.962;2023-06-14T19:28:46;8.77;;;5.35;;
73170;SDS011;61381;50.118;19.962;2023-06-14T19:33:49;8.07;;;5.40;;
73170;SDS011;61381;50.118;19.962;2023-06-14T19:38:50;8.60;;;5.57;;
73170;SDS011;61381;50.118;19.962;2023-06-14T19:43:51;13.02;;;5.95;;
73170;SDS011;61381;50.118;19.962;2023-06-14T19:48:53;11.52;;;7.30;;
73170;SDS011;61381;50.118;19.962;2023-06-14T19:53:54;12.40;;;8.38;;
73170;SDS011;61381;50.118;19.962;2023-06-14T19:58:55;15.80;;;7.97;;
73170;SDS011;61381;50.118;19.962;2023-06-14T20:03:58;11.07;;;7.28;;
73170;SDS011;61381;50.118;19.962;2023-06-14T20:08:58;12.80;;;6.78;;
73170;SDS011;61381;50.118;19.962;2023-06-14T20:14:00;10.77;;;7.13;;
73170;SDS011;61381;50.118;19.962;2023-06-14T20:19:02;17.27;;;8.60;;
73170;SDS011;61381;50.118;19.962;2023-06-14T20:24:03;16.15;;;8.75;;
73170;SDS011;61381;50.118;19.962;2023-06-14T20:29:04;15.13;;;8.93;;
73170;SDS011;61381;50.118;19.962;2023-06-14T20:34:07;14.10;;;8.20;;
73170;SDS011;61381;50.118;19.962;2023-06-14T20:39:08;14.18;;;7.85;;
73170;SDS011;61381;50.118;19.962;2023-06-14T20:44:09;12.38;;;8.23;;
73170;SDS011;61381;50.118;19.962;2023-06-14T20:49:11;14.32;;;7.88;;
73170;SDS011;61381;50.118;19.962;2023-06-14T20:54:12;12.18;;;7.53;;
73170;SDS011;61381;50.118;19.962;2023-06-14T20:59:13;16.50;;;8.68;;
73170;SDS011;61381;50.118;19.962;2023-06-14T21:04:16;17.05;;;9.27;;
73170;SDS011;61381;50.118;19.962;2023-06-14T21:09:17;14.23;;;8.70;;
73170;SDS011;61381;50.118;19.962;2023-06-14T21:14:18;18.30;;;10.00;;
73170;SDS011;61381;50.118;19.962;2023-06-14T21:19:20;22.75;;;11.88;;
73170;SDS011;61381;50.118;19.962;2023-06-14T21:24:21;23.30;;;12.05;;
73170;SDS011;61381;50.118;19.962;2023-06-14T21:29:22;23.90;;;12.43;;
73170;SDS011;61381;50.118;19.962;2023-06-14T21:34:25;29.20;;;13.75;;
73170;SDS011;61381;50.118;19.962;2023-06-14T21:39:26;23.23;;;12.60;;
73170;SDS011;61381;50.118;19.962;2023-06-14T21:44:27;19.85;;;11.77;;
73170;SDS011;61381;50.118;19.962;2023-06-14T21:49:29;17.30;;;10.07;;
73170;SDS011;61381;50.118;19.962;2023-06-14T21:54:31;20.17;;;11.00;;
73170;SDS011;61381;50.118;19.962;2023-06-14T21:59:31;16.48;;;9.77;;
73170;SDS011;61381;50.118;19.962;2023-06-14T22:04:34;16.55;;;9.57;;
73170;SDS011;61381;50.118;19.962;2023-06-14T22:09:35;15.73;;;9.18;;
73170;SDS011;61381;50.118;19.962;2023-06-14T22:14:36;14.13;;;8.75;;
73170;SDS011;61381;50.118;19.962;2023-06-14T22:19:38;15.80;;;8.38;;
73170;SDS011;61381;50.118;19.962;2023-06-14T22:24:39;20.45;;;10.20;;
73170;SDS011;61381;50.118;19.962;2023-06-14T22:29:40;23.63;;;12.02;;
73170;SDS011;61381;50.118;19.962;2023-06-14T22:34:43;21.35;;;12.48;;
73170;SDS011;61381;50.118;19.962;2023-06-14T22:39:44;19.48;;;10.75;;
73170;SDS011;61381;50.118;19.962;2023-06-14T22:44:45;18.33;;;10.32;;
73170;SDS011;61381;50.118;19.962;2023-06-14T22:49:47;19.42;;;10.43;;
73170;SDS011;61381;50.118;19.962;2023-06-14T22:54:48;17.30;;;9.38;;
73170;SDS011;61381;50.118;19.962;2023-06-14T22:59:49;21.23;;;10.13;;
73170;SDS011;61381;50.118;19.962;2023-06-14T23:04:51;19.48;;;11.05;;
73170;SDS011;61381;50.118;19.962;2023-06-14T23:09:52;20.52;;;10.82;;
73170;SDS011;61381;50.118;19.962;2023-06-14T23:14:53;20.88;;;10.02;;
73170;SDS011;61381;50.118;19.962;2023-06-14T23:19:56;22.20;;;10.55;;
73170;SDS011;61381;50.118;19.962;2023-06-14T23:24:57;19.17;;;11.07;;
73170;SDS011;61381;50.118;19.962;2023-06-14T23:29:58;19.77;;;10.32;;
73170;SDS011;61381;50.118;19.962;2023-06-14T23:35:01;20.63;;;10.60;;
73170;SDS011;61381;50.118;19.962;2023-06-14T23:40:04;20.55;;;11.10;;
73170;SDS011;61381;50.118;19.962;2023-06-14T23:45:06;20.63;;;11.27;;
73170;SDS011;61381;50.118;19.962;2023-06-14T23:50:09;24.67;;;11.40;;
73170;SDS011;61381;50.118;19.962;2023-06-14T23:55:10;20.75;;;11.65;;
